Terminal Aerodrome Forecast
Issued by NWS

Home | Current Version | Previous Version | Text Only | Print | Product List | Glossary On
Versions: 1 2 3 4 5 6 7 8 9 10 11 12 13 14 15 16 17 18 19
149
FTUS43 KICT 121915 AAA
TAFRSL
TAF AMD
KRSL 121915Z 1219/1318 04009KT P6SM OVC013
     FM122100 04009KT P6SM OVC025
     FM130200 06013KT P6SM BKN025 OVC100=

USA.gov is the U.S. government's official web portal to all federal, state and local government web resources and services.